Terminal Aerodrome Forecast
Issued by NWS Twin Cities, MN

Home | Current Version | Previous Version | Graphics & Text | Print | Product List | Glossary On
Versions: 1 2 3 4 5 6 7 8 9 10 11 12 13 14 15 16 17 18 19 20 21 22 23 24 25 26 27 28 29 30 31 32 33
690
FTUS43 KMPX 151727
TAFMSP
TAF
KMSP 151727Z 1518/1624 12006KT P6SM SCT250
     FM151900 12007KT P6SM BKN150
     FM160500 12007KT P6SM VCSH OVC090
     FM160900 12007KT P6SM SHRA VCTS OVC035CB
     FM161200 13007KT 5SM SHRA BR OVC015
     FM161400 13008KT 4SM SHRA BR OVC010
     FM161800 13009KT P6SM OVC025=

USA.gov is the U.S. government's official web portal to all federal, state and local government web resources and services.